Portland — WDG2201 — position and weather

sailwx.info

Track history (hours):
 
Tides and Currents Weather Stations Pressure Air Temp Water Temp Dewpoint Dewpoint Depression Visibility Wind Speed Wind Dir Waves Ship Positions

Portland

Owner: Shaver Transportation Company, Portland, OR. More information available from US FCC via Universal Licensing System and Coast Guard Vessel Documentation Center.

Last reported at 2018-Feb-19 21:30 UTC. Time now 2018-Feb-19 21:39 UTC.
Position N 46°06' W 122°56'.

Length 27 m; draft 4 m.

Type: Towing. MMSI: 367315814.

Date/timePositionNaut miles runAvg speedWind from/ knotsBaromVisibWave heightAir tempDewpointWater temp
2018-Feb-19 21:30N 46°06' W 122°56'0 0.1
2018-Feb-19 21:00N 46°06' W 122°56'0 0.0
2018-Feb-19 20:31N 46°06' W 122°56'1 0.9
2018-Feb-19 19:57N 46°05' W 122°56'0 0.0
2018-Feb-19 18:54N 46°05' W 122°56'0 0.0
2018-Feb-19 18:06N 46°05' W 122°56'0 0.0
2018-Feb-19 18:00N 46°05' W 122°56'0 0.0
2018-Feb-19 17:27N 46°05' W 122°56'0 0.0
2018-Feb-19 16:57N 46°05' W 122°56'0 0.0
2018-Feb-19 16:27N 46°05' W 122°56'0 0.0
2018-Feb-19 16:00N 46°05' W 122°56'0 0.0
2018-Feb-19 15:27N 46°05' W 122°56'0 0.0
2018-Feb-19 15:00N 46°05' W 122°56'2 3.4
2018-Feb-19 14:31N 46°07' W 122°58'0 0.2
2018-Feb-19 14:00N 46°06' W 122°58'0 0.1
2018-Feb-19 13:31N 46°06' W 122°58'0 0.0
2018-Feb-19 13:01N 46°06' W 122°58'0 0.1
2018-Feb-19 12:30N 46°06' W 122°58'2 3.1
2018-Feb-19 12:01N 46°05' W 122°56'2 1.4
2018-Feb-19 10:49N 46°07' W 122°58'0 0.0
2018-Feb-19 10:30N 46°07' W 122°58'0 0.0
2018-Feb-19 10:00N 46°07' W 122°58'3 4.3
2018-Feb-19 09:19N 46°05' W 122°54'1 4.7
2018-Feb-19 09:01N 46°04' W 122°53'2 4.2
2018-Feb-19 08:30N 46°02' W 122°53'0 0.1
2018-Feb-19 08:00N 46°02' W 122°53'0 0.5
2018-Feb-19 07:30N 46°02' W 122°52'2 3.5
2018-Feb-19 06:57N 46°04' W 122°53'3 5.3
2018-Feb-19 06:26N 46°05' W 122°56'0 0.0
2018-Feb-19 05:56N 46°05' W 122°56'0 0.0
2018-Feb-19 05:17N 46°05' W 122°56'0 0.0
2018-Feb-19 04:59N 46°05' W 122°56'0 0.0
2018-Feb-19 04:29N 46°05' W 122°56'0 0.0
2018-Feb-19 03:59N 46°05' W 122°56'0 0.0
2018-Feb-19 03:26N 46°05' W 122°56'0 0.0
2018-Feb-19 02:59N 46°05' W 122°56'0 0.0
2018-Feb-19 02:29N 46°05' W 122°56'0 0.0
2018-Feb-19 01:53N 46°05' W 122°56'0 0.0
2018-Feb-19 01:26N 46°05' W 122°56'0 0.0
2018-Feb-19 00:59N 46°05' W 122°56'0 0.0
2018-Feb-19 00:29N 46°05' W 122°56'0 0.0
2018-Feb-18 23:59N 46°05' W 122°56'0 0.0
2018-Feb-18 23:26N 46°05' W 122°56'0 0.0
2018-Feb-18 22:53N 46°05' W 122°56'0 0.0
2018-Feb-18 22:29N 46°05' W 122°56'0 0.1
2018-Feb-18 22:00N 46°05' W 122°56'1 1.1
2018-Feb-18 21:30N 46°06' W 122°56'0 0.2
2018-Feb-18 21:00N 46°06' W 122°56'0 0.3
2018-Feb-18 20:30N 46°06' W 122°56'0 0.0
2018-Feb-18 20:00N 46°06' W 122°56'0 0.0
2018-Feb-18 19:30N 46°06' W 122°56'0 0.0
2018-Feb-18 19:00N 46°06' W 122°56'0 0.0
2018-Feb-18 18:31N 46°06' W 122°56'0 0.0
2018-Feb-18 18:00N 46°06' W 122°56'0 0.0
2018-Feb-18 17:30N 46°06' W 122°56'0 0.0
2018-Feb-18 17:01N 46°06' W 122°56'0 0.3
2018-Feb-18 16:31N 46°06' W 122°56'1 1.0
2018-Feb-18 16:01N 46°05' W 122°56'0 0.0
2018-Feb-18 15:30N 46°05' W 122°56'0 0.0
2018-Feb-18 15:00N 46°05' W 122°56'0 0.0
2018-Feb-18 14:31N 46°05' W 122°56'0 0.0
2018-Feb-18 14:00N 46°05' W 122°56'0 0.0
2018-Feb-18 13:30N 46°05' W 122°56'0 0.0
2018-Feb-18 13:00N 46°05' W 122°56'0 0.0
2018-Feb-18 12:30N 46°05' W 122°56'0 0.0
2018-Feb-18 12:01N 46°05' W 122°56'0 0.0
2018-Feb-18 11:30N 46°05' W 122°56'0 0.0
2018-Feb-18 11:00N 46°05' W 122°56'0 0.0
2018-Feb-18 10:31N 46°05' W 122°56'0 0.0
2018-Feb-18 09:48N 46°05' W 122°56'0 0.0
2018-Feb-18 09:31N 46°05' W 122°56'0 0.0
2018-Feb-18 09:00N 46°05' W 122°56'0 0.0
2018-Feb-18 08:30N 46°05' W 122°56'0 0.0
2018-Feb-18 08:00N 46°05' W 122°56'0 0.0
2018-Feb-18 07:30N 46°05' W 122°56'0 0.0
2018-Feb-18 07:01N 46°05' W 122°56'0 0.0
2018-Feb-18 06:30N 46°05' W 122°56'0 0.0
2018-Feb-18 06:00N 46°05' W 122°56'0 0.0
2018-Feb-18 05:31N 46°05' W 122°56'0 0.0
2018-Feb-18 05:00N 46°05' W 122°56'0 0.0
2018-Feb-18 04:30N 46°05' W 122°56'0 0.0
2018-Feb-18 04:00N 46°05' W 122°56'0 0.0
2018-Feb-18 03:30N 46°05' W 122°56'0 0.0
2018-Feb-18 03:01N 46°05' W 122°56'0 0.0
2018-Feb-18 02:30N 46°05' W 122°56'0 0.0
2018-Feb-18 02:01N 46°05' W 122°56'0 0.0
2018-Feb-18 01:30N 46°05' W 122°56'0 0.0
2018-Feb-18 01:00N 46°05' W 122°56'0 0.0
2018-Feb-18 00:11N 46°05' W 122°56'0 0.0
2018-Feb-17 23:48N 46°05' W 122°56'0 0.0
2018-Feb-17 23:31N 46°05' W 122°56'0 0.0
2018-Feb-17 23:00N 46°05' W 122°56'4 7.3
2018-Feb-17 22:30N 46°02' W 122°53'2 4.4
2018-Feb-17 22:00N 46°01' W 122°51'0 0.4
2018-Feb-17 21:30N 46°00' W 122°51'2 3.2
2018-Feb-17 21:00N 45°59' W 122°50'0 0.1
2018-Feb-17 20:30N 45°59' W 122°50'3 6.1
2018-Feb-17 20:01N 46°02' W 122°52'0 0.0
2018-Feb-17 19:30N 46°02' W 122°52'3 4.7
2018-Feb-17 18:58N 46°04' W 122°53'2 4.8
2018-Feb-17 18:30N 46°05' W 122°56'1 2.0
2018-Feb-17 18:00N 46°06' W 122°57'0 0.2
2018-Feb-17 17:30N 46°06' W 122°57'1 2.1
2018-Feb-17 17:00N 46°05' W 122°56'0 0.0
2018-Feb-17 16:30N 46°05' W 122°56'0 0.0
2018-Feb-17 16:00N 46°05' W 122°56'0 0.0
2018-Feb-17 15:30N 46°05' W 122°56'0 0.0
2018-Feb-17 15:00N 46°05' W 122°56'0 0.0
2018-Feb-17 14:30N 46°05' W 122°56'0 0.0
2018-Feb-17 14:00N 46°05' W 122°56'0 0.0
2018-Feb-17 13:30N 46°05' W 122°56'0 0.3
2018-Feb-17 12:49N 46°06' W 122°56'1 1.3
2018-Feb-17 12:05N 46°06' W 122°57'0 1.5
2018-Feb-17 11:56N 46°06' W 122°58'1 0.8
2018-Feb-17 10:15N 46°05' W 122°56'0 0.0
2018-Feb-17 09:54N 46°05' W 122°56'0 0.0
2018-Feb-17 09:24N 46°05' W 122°56'0 0.0
2018-Feb-17 09:00N 46°05' W 122°56'0 0.0
2018-Feb-17 08:27N 46°05' W 122°56'0 0.0
2018-Feb-17 08:00N 46°05' W 122°56'0 0.0
2018-Feb-17 07:30N 46°05' W 122°56'0 0.0
2018-Feb-17 07:00N 46°05' W 122°56'0 0.0
2018-Feb-17 06:31N 46°05' W 122°56'4 8.2
2018-Feb-17 06:01N 46°02' W 122°53'0 0.8
2018-Feb-17 05:31N 46°02' W 122°53'0 0.7
2018-Feb-17 05:00N 46°02' W 122°52'0 0.0
2018-Feb-17 04:25N 46°02' W 122°52'0 0.0
2018-Feb-17 03:32N 46°02' W 122°52'0 0.0
2018-Feb-17 03:07N 46°02' W 122°52'0 0.0
2018-Feb-17 02:58N 46°02' W 122°52'0 0.0
2018-Feb-17 02:28N 46°02' W 122°52'0 0.0
2018-Feb-17 01:58N 46°02' W 122°52'0 0.0
2018-Feb-17 01:28N 46°02' W 122°52'0 0.0
2018-Feb-17 01:01N 46°02' W 122°52'3 5.0
2018-Feb-17 00:30N 45°59' W 122°50'1 1.1
2018-Feb-17 00:00N 45°59' W 122°50'0 0.8
2018-Feb-16 23:29N 45°59' W 122°50'1 2.8
2018-Feb-16 23:00N 46°00' W 122°51'3 5.2
2018-Feb-16 22:30N 45°58' W 122°50'713.4
2018-Feb-16 22:00N 45°52' W 122°47'713.2
2018-Feb-16 21:30N 45°45' W 122°46'7 8.2
2018-Feb-16 20:42N 45°39' W 122°45'0 0.0
2018-Feb-16 20:12N 45°39' W 122°45'0 0.0
2018-Feb-16 19:57N 45°39' W 122°45'0 0.0
2018-Feb-16 19:21N 45°39' W 122°45'0 0.0
2018-Feb-16 18:54N 45°39' W 122°45'0 0.0
2018-Feb-16 18:21N 45°39' W 122°45'0 0.0
2018-Feb-16 17:57N 45°39' W 122°45'0 0.0
2018-Feb-16 17:30N 45°39' W 122°45'0 0.0
2018-Feb-16 17:00N 45°39' W 122°45'0 0.0
2018-Feb-16 16:09N 45°39' W 122°45'0 0.0
2018-Feb-16 15:51N 45°39' W 122°45'0 0.0
2018-Feb-16 15:30N 45°39' W 122°45'3 5.2
2018-Feb-16 15:00N 45°38' W 122°42'0 0.7
2018-Feb-16 14:30N 45°38' W 122°42'1 1.7
2018-Feb-16 14:00N 45°38' W 122°43'0 0.8
2018-Feb-16 13:30N 45°38' W 122°43'0 0.3
2018-Feb-16 13:01N 45°38' W 122°43'1 2.3
2018-Feb-16 12:30N 45°39' W 122°44'0 0.9
2018-Feb-16 12:00N 45°39' W 122°45'1 2.0
2018-Feb-16 11:30N 45°39' W 122°46'3 6.3
2018-Feb-16 11:00N 45°36' W 122°47'0 0.5
2018-Feb-16 10:30N 45°36' W 122°47'0 0.3
2018-Feb-16 10:00N 45°36' W 122°47'0 0.0
2018-Feb-16 09:03N 45°36' W 122°47'0 0.0
2018-Feb-16 09:00N 45°36' W 122°47'0 0.0
2018-Feb-16 08:30N 45°36' W 122°47'0 0.1
2018-Feb-16 08:00N 45°36' W 122°47'3 5.8
2018-Feb-16 07:29N 45°34' W 122°44'0 0.0
2018-Feb-16 06:55N 45°34' W 122°44'0 0.0
2018-Feb-16 06:28N 45°34' W 122°44'0 0.0
2018-Feb-16 05:46N 45°34' W 122°44'0 0.0
2018-Feb-16 05:22N 45°34' W 122°44'0 0.0
2018-Feb-16 04:55N 45°34' W 122°44'0 0.0
2018-Feb-16 04:28N 45°34' W 122°44'0 0.0
2018-Feb-16 03:55N 45°34' W 122°44'0 0.0
2018-Feb-16 03:28N 45°34' W 122°44'0 0.0
2018-Feb-16 02:55N 45°34' W 122°44'0 0.0
2018-Feb-16 02:28N 45°34' W 122°44'0 0.0
2018-Feb-16 01:58N 45°34' W 122°44'0 0.0
2018-Feb-16 01:28N 45°34' W 122°44'0 0.0
2018-Feb-16 00:58N 45°34' W 122°44'0 0.0
2018-Feb-16 00:22N 45°34' W 122°44'0 0.0
2018-Feb-15 23:58N 45°34' W 122°44'0 0.0
2018-Feb-15 23:28N 45°34' W 122°44'0 0.0
2018-Feb-15 22:58N 45°34' W 122°44'0 0.0
2018-Feb-15 22:28N 45°34' W 122°44'0 0.0
2018-Feb-15 21:58N 45°34' W 122°44'0 0.0
2018-Feb-15 21:25N 45°34' W 122°44'0 0.0
2018-Feb-15 20:58N 45°34' W 122°44'0 0.0
2018-Feb-15 20:28N 45°34' W 122°44'0 0.0
2018-Feb-15 19:58N 45°34' W 122°44'0 0.0
2018-Feb-15 19:28N 45°34' W 122°44'0 0.0
2018-Feb-15 18:58N 45°34' W 122°44'0 0.0
2018-Feb-15 18:16N 45°34' W 122°44'0 0.0
2018-Feb-15 17:46N 45°34' W 122°44'0 0.0
2018-Feb-15 17:16N 45°34' W 122°44'0 0.0
2018-Feb-15 16:58N 45°34' W 122°44'0 0.0
2018-Feb-15 16:25N 45°34' W 122°44'0 0.0
2018-Feb-15 15:58N 45°34' W 122°44'0 0.0
2018-Feb-15 15:28N 45°34' W 122°44'0 0.0
2018-Feb-15 14:58N 45°34' W 122°44'0 0.0
2018-Feb-15 14:28N 45°34' W 122°44'0 0.0
2018-Feb-15 13:58N 45°34' W 122°44'0 0.0
2018-Feb-15 13:28N 45°34' W 122°44'0 0.0
2018-Feb-15 12:55N 45°34' W 122°44'0 0.0
2018-Feb-15 12:28N 45°34' W 122°44'0 0.0
2018-Feb-15 10:52N 45°34' W 122°44'0 0.0
2018-Feb-15 10:09N 45°34' W 122°44'0 0.0
2018-Feb-15 09:58N 45°34' W 122°44'0 0.0
2018-Feb-15 09:28N 45°34' W 122°44'0 0.0
2018-Feb-15 08:49N 45°34' W 122°44'0 0.1
2018-Feb-15 08:25N 45°34' W 122°44'0 0.0
2018-Feb-15 07:58N 45°34' W 122°44'0 0.0
2018-Feb-15 07:28N 45°34' W 122°44'0 0.0
2018-Feb-15 06:58N 45°34' W 122°44'0 0.0
2018-Feb-15 06:25N 45°34' W 122°44'0 0.0
2018-Feb-15 05:55N 45°34' W 122°44'0 0.0
2018-Feb-15 05:25N 45°34' W 122°44'0 0.0
2018-Feb-15 04:58N 45°34' W 122°44'0 0.0
2018-Feb-15 04:22N 45°34' W 122°44'0 0.0
2018-Feb-15 03:58N 45°34' W 122°44'0 0.0
2018-Feb-15 03:25N 45°34' W 122°44'0 0.0
2018-Feb-15 02:55N 45°34' W 122°44'0 0.0
2018-Feb-15 02:28N 45°34' W 122°44'0 0.0
2018-Feb-15 01:58N 45°34' W 122°44'0 0.0
2018-Feb-15 01:28N 45°34' W 122°44'0 0.0
2018-Feb-15 00:55N 45°34' W 122°44'0 0.0
2018-Feb-15 00:28N 45°34' W 122°44'0 0.0
2018-Feb-14 23:58N 45°34' W 122°44'0 0.0
2018-Feb-14 23:28N 45°34' W 122°44'0 0.0
2018-Feb-14 22:58N 45°34' W 122°44'0 0.0
2018-Feb-14 22:28N 45°34' W 122°44'0 0.0
2018-Feb-14 21:58N 45°34' W 122°44'0 0.0
2018-Feb-14 21:28N 45°34' W 122°44'0 0.0
2018-Feb-14 20:58N 45°34' W 122°44'0 0.0
2018-Feb-14 20:25N 45°34' W 122°44'0 0.0
2018-Feb-14 19:58N 45°34' W 122°44'0 0.0
2018-Feb-14 19:25N 45°34' W 122°44'0 0.0
2018-Feb-14 18:55N 45°34' W 122°44'0 0.0
2018-Feb-14 18:28N 45°34' W 122°44'0 0.0
2018-Feb-14 17:58N 45°34' W 122°44'0 0.0
2018-Feb-14 17:25N 45°34' W 122°44'0 0.0
2018-Feb-14 16:55N 45°34' W 122°44'0 0.0
2018-Feb-14 16:28N 45°34' W 122°44'0 0.0
2018-Feb-14 15:49N 45°34' W 122°44'0 0.0
2018-Feb-14 15:28N 45°34' W 122°44'0 0.0
2018-Feb-14 14:55N 45°34' W 122°44'0 0.0
2018-Feb-14 14:28N 45°34' W 122°44'0 0.0
2018-Feb-14 13:55N 45°34' W 122°44'0 0.0
2018-Feb-14 13:28N 45°34' W 122°44'0 0.0
2018-Feb-14 13:00N 45°34' W 122°44'0 0.0
2018-Feb-14 12:30N 45°34' W 122°44'0 0.0
2018-Feb-14 12:00N 45°34' W 122°44'0 0.0
2018-Feb-14 11:27N 45°34' W 122°44'0 0.0
2018-Feb-14 11:00N 45°34' W 122°44'2 3.3
2018-Feb-14 10:31N 45°35' W 122°45'4 7.5
2018-Feb-14 10:01N 45°38' W 122°47'1 1.8
2018-Feb-14 09:26N 45°39' W 122°45'0 0.0
2018-Feb-14 08:50N 45°39' W 122°45'0 0.0
2018-Feb-14 08:26N 45°39' W 122°45'0 0.0
2018-Feb-14 07:59N 45°39' W 122°45'0 0.0
2018-Feb-14 07:29N 45°39' W 122°45'0 0.0
2018-Feb-14 06:59N 45°39' W 122°45'0 0.0
2018-Feb-14 06:29N 45°39' W 122°45'0 0.0
2018-Feb-14 05:59N 45°39' W 122°45'0 0.0
2018-Feb-14 05:29N 45°39' W 122°45'2 3.4
2018-Feb-14 05:00N 45°38' W 122°43'0 0.3
2018-Feb-14 04:30N 45°38' W 122°43'0 0.2
2018-Feb-14 04:00N 45°38' W 122°43'2 3.2
2018-Feb-14 03:30N 45°39' W 122°45'0 0.0
2018-Feb-14 03:01N 45°39' W 122°45'0 0.0
2018-Feb-14 02:30N 45°39' W 122°45'0 0.0
2018-Feb-14 02:00N 45°39' W 122°45'0 0.0
2018-Feb-14 01:30N 45°39' W 122°45'0 0.0
2018-Feb-14 01:01N 45°39' W 122°45'0 0.0
2018-Feb-14 00:31N 45°39' W 122°45'0 0.0
2018-Feb-14 00:00N 45°39' W 122°45'2 3.0
2018-Feb-13 23:30N 45°40' W 122°46'1 1.1
2018-Feb-13 23:00N 45°40' W 122°47'2 3.7
2018-Feb-13 22:27N 45°39' W 122°45'0 0.0
2018-Feb-13 20:36N 45°39' W 122°45'0 0.0
2018-Feb-13 20:30N 45°39' W 122°45'0 0.0
2018-Feb-13 20:00N 45°39' W 122°45'0 0.0
2018-Feb-13 19:30N 45°39' W 122°45'0 0.0
2018-Feb-13 18:54N 45°39' W 122°45'0 0.0
2018-Feb-13 18:18N 45°39' W 122°45'0 0.0
2018-Feb-13 17:45N 45°39' W 122°45'0 0.0
2018-Feb-13 17:18N 45°39' W 122°45'0 0.0
2018-Feb-13 16:57N 45°39' W 122°45'0 0.0
2018-Feb-13 16:27N 45°39' W 122°45'0 0.0
2018-Feb-13 15:39N 45°39' W 122°45'0 0.0
2018-Feb-13 15:15N 45°39' W 122°45'0 0.0
2018-Feb-13 14:54N 45°39' W 122°45'0 0.0
2018-Feb-13 14:30N 45°39' W 122°45'0 0.0
2018-Feb-13 14:00N 45°39' W 122°45'0 0.0
2018-Feb-13 13:30N 45°39' W 122°45'0 0.0
2018-Feb-13 12:45N 45°39' W 122°45'0 0.0
2018-Feb-13 12:30N 45°39' W 122°45'0 0.0
2018-Feb-13 11:54N 45°39' W 122°45'0 0.0
2018-Feb-13 11:30N 45°39' W 122°45'0 0.0
2018-Feb-13 11:00N 45°39' W 122°45'0 0.0
2018-Feb-13 10:27N 45°39' W 122°45'0 0.0
2018-Feb-13 10:00N 45°39' W 122°45'0 0.0
2018-Feb-13 09:30N 45°39' W 122°45'0 0.0
2018-Feb-13 08:54N 45°39' W 122°45'0 0.0
2018-Feb-13 08:30N 45°39' W 122°45'0 0.0
2018-Feb-13 08:00N 45°39' W 122°45'0 0.0
2018-Feb-13 07:30N 45°39' W 122°45'0 0.0
2018-Feb-13 06:57N 45°39' W 122°45'2 3.5
2018-Feb-13 06:30N 45°38' W 122°43'0 0.0
2018-Feb-13 05:49N 45°38' W 122°43'0 0.2
2018-Feb-13 05:27N 45°38' W 122°43'1 1.4
2018-Feb-13 05:00N 45°39' W 122°44'1 1.7
2018-Feb-13 04:30N 45°39' W 122°45'0 0.0
2018-Feb-13 04:01N 45°39' W 122°45'0 0.0
2018-Feb-13 03:30N 45°39' W 122°45'0 0.0
2018-Feb-13 03:00N 45°39' W 122°45'3 5.8
2018-Feb-13 02:29N 45°41' W 122°46'5 9.3
2018-Feb-13 02:00N 45°46' W 122°46'5 9.7
2018-Feb-13 01:30N 45°51' W 122°47'5 9.2
2018-Feb-13 01:01N 45°55' W 122°48'810.0
2018-Feb-13 00:13N 46°03' W 122°53'2 9.9
2018-Feb-13 00:00N 46°05' W 122°54'2 3.5
2018-Feb-12 23:30N 46°06' W 122°56'0 1.0
2018-Feb-12 23:00N 46°06' W 122°56'1 2.2
2018-Feb-12 22:30N 46°06' W 122°58'0 0.3
2018-Feb-12 22:00N 46°06' W 122°58'2 3.3
2018-Feb-12 21:30N 46°05' W 122°56'0 0.0
2018-Feb-12 21:00N 46°05' W 122°56'0 0.0
2018-Feb-12 20:18N 46°05' W 122°56'0 0.0
2018-Feb-12 19:54N 46°05' W 122°56'0 0.0
2018-Feb-12 19:18N 46°05' W 122°56'0 0.0
2018-Feb-12 19:00N 46°05' W 122°56'0 0.0
2018-Feb-12 18:28N 46°05' W 122°56'0 0.0
2018-Feb-12 17:58N 46°05' W 122°56'0 0.0
2018-Feb-12 17:16N 46°05' W 122°56'0 0.0
2018-Feb-12 16:58N 46°05' W 122°56'0 0.0
2018-Feb-12 16:19N 46°05' W 122°56'0 0.0
2018-Feb-12 15:58N 46°05' W 122°56'0 0.0
2018-Feb-12 15:07N 46°05' W 122°56'0 0.0
2018-Feb-12 14:58N 46°05' W 122°56'0 0.0
2018-Feb-12 14:28N 46°05' W 122°56'0 0.0
2018-Feb-12 13:58N 46°05' W 122°56'1 2.2
2018-Feb-12 13:30N 46°06' W 122°57'5 8.3
2018-Feb-12 12:57N 46°09' W 123°02'4 8.6
2018-Feb-12 12:30N 46°11' W 123°07'4 8.3
2018-Feb-12 12:01N 46°10' W 123°13'4 8.4
2018-Feb-12 11:30N 46°09' W 123°18'4 8.6
2018-Feb-12 11:01N 46°10' W 123°24'4 8.5
2018-Feb-12 10:30N 46°14' W 123°26'4 8.2
2018-Feb-12 10:00N 46°16' W 123°31'5 9.3
2018-Feb-12 09:31N 46°16' W 123°37'5 9.6
2018-Feb-12 09:01N 46°14' W 123°44'510.2
2018-Feb-12 08:31N 46°12' W 123°50'1 2.0
2018-Feb-12 08:00N 46°11' W 123°52'0 0.2
2018-Feb-12 07:29N 46°11' W 123°52'0 0.0
2018-Feb-12 06:59N 46°11' W 123°52'0 0.0
2018-Feb-12 06:29N 46°11' W 123°52'2 3.1
2018-Feb-12 05:47N 46°12' W 123°49'2 7.7
2018-Feb-12 05:31N 46°13' W 123°46'4 8.1
2018-Feb-12 05:00N 46°15' W 123°41'4 8.2
2018-Feb-12 04:30N 46°15' W 123°35'5 9.2
2018-Feb-12 04:01N 46°16' W 123°28'5 9.9
2018-Feb-12 03:31N 46°12' W 123°26'5 9.5
2018-Feb-12 03:00N 46°09' W 123°20'510.7
2018-Feb-12 02:30N 46°10' W 123°13'510.2
2018-Feb-12 02:00N 46°10' W 123°06'612.3
2018-Feb-12 01:30N 46°07' W 122°58'2 3.6
2018-Feb-12 00:55N 46°05' W 122°56'0 0.0
2018-Feb-12 00:28N 46°05' W 122°56'0 0.0
2018-Feb-11 23:58N 46°05' W 122°56'0 0.0
2018-Feb-11 23:28N 46°05' W 122°56'0 0.0
2018-Feb-11 22:58N 46°05' W 122°56'0 0.0
2018-Feb-11 22:25N 46°05' W 122°56'0 0.0
2018-Feb-11 21:58N 46°05' W 122°56'0 0.0
2018-Feb-11 21:28N 46°05' W 122°56'0 0.0
2018-Feb-11 20:55N 46°05' W 122°56'0 0.0
2018-Feb-11 19:55N 46°05' W 122°56'0 0.0
2018-Feb-11 19:13N 46°05' W 122°56'0 0.0
2018-Feb-11 18:55N 46°05' W 122°56'0 0.0
2018-Feb-11 18:28N 46°05' W 122°56'0 0.0
2018-Feb-11 17:49N 46°05' W 122°56'0 0.0
2018-Feb-11 17:28N 46°05' W 122°56'0 0.0
2018-Feb-11 16:52N 46°05' W 122°56'0 0.0
2018-Feb-11 16:28N 46°05' W 122°56'0 0.0
2018-Feb-11 15:55N 46°05' W 122°56'0 0.0
2018-Feb-11 15:28N 46°05' W 122°56'0 0.0
2018-Feb-11 14:58N 46°05' W 122°56'0 0.0
2018-Feb-11 14:28N 46°05' W 122°56'0 0.0
2018-Feb-11 13:46N 46°05' W 122°56'0 0.0
2018-Feb-11 13:25N 46°05' W 122°56'0 0.0
2018-Feb-11 12:58N 46°05' W 122°56'0 0.0
2018-Feb-11 12:28N 46°05' W 122°56'0 0.0
2018-Feb-11 11:52N 46°05' W 122°56'0 0.0
2018-Feb-11 11:28N 46°05' W 122°56'0 0.0
2018-Feb-11 10:58N 46°05' W 122°56'0 0.0
2018-Feb-11 10:28N 46°05' W 122°56'0 0.0
2018-Feb-11 09:55N 46°05' W 122°56'0 0.0
2018-Feb-11 09:28N 46°05' W 122°56'0 0.0
2018-Feb-11 08:37N 46°05' W 122°56'0 0.0
2018-Feb-11 08:22N 46°05' W 122°56'0 0.0
2018-Feb-11 07:58N 46°05' W 122°56'0 0.0
2018-Feb-11 06:49N 46°05' W 122°56'0 0.0
2018-Feb-11 06:22N 46°05' W 122°56'1 1.5
2018-Feb-11 05:51N 46°06' W 122°57'0 0.3
2018-Feb-11 05:30N 46°06' W 122°57'0 0.1
2018-Feb-11 05:01N 46°06' W 122°57'0 0.4
2018-Feb-11 04:30N 46°06' W 122°56'0 0.5
2018-Feb-11 04:01N 46°06' W 122°57'0 0.7
2018-Feb-11 03:31N 46°06' W 122°56'0 0.0
2018-Feb-11 03:00N 46°06' W 122°56'3 3.7
2018-Feb-11 02:18N 46°08' W 122°59'0 0.0
2018-Feb-11 02:01N 46°08' W 122°59'2 3.8
2018-Feb-11 01:29N 46°06' W 122°57'0 0.3
2018-Feb-11 01:00N 46°06' W 122°57'2 3.3
2018-Feb-11 00:25N 46°08' W 122°59'3 7.2
2018-Feb-11 00:00N 46°06' W 122°56'0 0.2
2018-Feb-10 23:30N 46°05' W 122°56'0 0.0
2018-Feb-10 22:57N 46°05' W 122°56'0 0.0
2018-Feb-10 22:15N 46°05' W 122°56'0 0.0
2018-Feb-10 22:00N 46°05' W 122°56'0 0.0
2018-Feb-10 21:30N 46°05' W 122°56'0 0.0
2018-Feb-10 20:57N 46°05' W 122°56'0 0.0
2018-Feb-10 20:27N 46°05' W 122°56'0 0.0
2018-Feb-10 20:00N 46°05' W 122°56'0 0.0
2018-Feb-10 19:30N 46°05' W 122°56'0 0.0
2018-Feb-10 18:57N 46°05' W 122°56'0 0.0
2018-Feb-10 18:30N 46°05' W 122°56'0 0.0
2018-Feb-10 18:00N 46°05' W 122°56'0 0.0
2018-Feb-10 17:30N 46°05' W 122°56'0 0.0
2018-Feb-10 16:54N 46°05' W 122°56'0 0.0
2018-Feb-10 16:30N 46°05' W 122°56'0 0.0
2018-Feb-10 16:00N 46°05' W 122°56'0 0.0
2018-Feb-10 15:30N 46°05' W 122°56'1 1.2
2018-Feb-10 15:01N 46°05' W 122°55'2 3.7
2018-Feb-10 14:30N 46°04' W 122°53'0 0.0
2018-Feb-10 14:00N 46°04' W 122°53'0 0.0
2018-Feb-10 13:30N 46°04' W 122°53'0 0.1
2018-Feb-10 13:01N 46°04' W 122°53'0 0.6
2018-Feb-10 12:30N 46°04' W 122°53'2 4.4
2018-Feb-10 12:00N 46°05' W 122°56'0 0.0
2018-Feb-10 11:28N 46°05' W 122°56'0 0.0
2018-Feb-10 10:58N 46°05' W 122°56'0 0.0
2018-Feb-10 10:10N 46°05' W 122°56'0 0.0
2018-Feb-10 09:58N 46°05' W 122°56'0 0.0
2018-Feb-10 09:28N 46°05' W 122°56'0 0.0
2018-Feb-10 08:58N 46°05' W 122°56'0 0.0
2018-Feb-10 08:28N 46°05' W 122°56'0 0.0
2018-Feb-10 07:55N 46°05' W 122°56'0 0.0
2018-Feb-10 07:28N 46°05' W 122°56'0 0.0
2018-Feb-10 06:46N 46°05' W 122°56'0 0.0
2018-Feb-10 06:13N 46°05' W 122°56'0 0.0
2018-Feb-10 05:58N 46°05' W 122°56'0 0.0
2018-Feb-10 05:28N 46°05' W 122°56'0 0.0
2018-Feb-10 04:58N 46°05' W 122°56'0 0.0
2018-Feb-10 04:28N 46°05' W 122°56'0 0.0
2018-Feb-10 03:46N 46°05' W 122°56'0 0.0
2018-Feb-10 03:25N 46°05' W 122°56'0 0.0
2018-Feb-10 02:55N 46°05' W 122°56'0 0.0
2018-Feb-10 02:25N 46°05' W 122°56'0 0.0
2018-Feb-10 01:52N 46°05' W 122°56'0 0.0
2018-Feb-10 01:25N 46°05' W 122°56'0 0.0
2018-Feb-10 00:58N 46°05' W 122°56'0 0.0
2018-Feb-10 00:19N 46°05' W 122°56'0 0.0
2018-Feb-09 23:58N 46°05' W 122°56'0 0.0
2018-Feb-09 23:28N 46°05' W 122°56'0 0.0
2018-Feb-09 22:43N 46°05' W 122°56'  
Track history (hours):
 
Tides and Currents Weather Stations Pressure Air Temp Water Temp Dewpoint Dewpoint Depression Visibility Wind Speed Wind Dir Waves Ship Positions

Portland

Owner: Shaver Transportation Company, Portland, OR. More information available from US FCC via Universal Licensing System and Coast Guard Vessel Documentation Center.

Last reported at 2018-Feb-19 21:30 UTC. Time now 2018-Feb-19 21:39 UTC.
Position N 46°06' W 122°56'.

Length 27 m; draft 4 m.

Type: Towing. MMSI: 367315814.

Date/timePositionNaut miles runAvg speedWind from/ knotsBaromVisibWave heightAir tempDewpointWater temp
2018-Feb-19 21:30N 46°06' W 122°56'0 0.1
2018-Feb-19 21:00N 46°06' W 122°56'0 0.0
2018-Feb-19 20:31N 46°06' W 122°56'1 0.9
2018-Feb-19 19:57N 46°05' W 122°56'0 0.0
2018-Feb-19 18:54N 46°05' W 122°56'0 0.0
2018-Feb-19 18:06N 46°05' W 122°56'0 0.0
2018-Feb-19 18:00N 46°05' W 122°56'0 0.0
2018-Feb-19 17:27N 46°05' W 122°56'0 0.0
2018-Feb-19 16:57N 46°05' W 122°56'0 0.0
2018-Feb-19 16:27N 46°05' W 122°56'0 0.0
2018-Feb-19 16:00N 46°05' W 122°56'0 0.0
2018-Feb-19 15:27N 46°05' W 122°56'0 0.0
2018-Feb-19 15:00N 46°05' W 122°56'2 3.4
2018-Feb-19 14:31N 46°07' W 122°58'0 0.2
2018-Feb-19 14:00N 46°06' W 122°58'0 0.1
2018-Feb-19 13:31N 46°06' W 122°58'0 0.0
2018-Feb-19 13:01N 46°06' W 122°58'0 0.1
2018-Feb-19 12:30N 46°06' W 122°58'2 3.1
2018-Feb-19 12:01N 46°05' W 122°56'2 1.4
2018-Feb-19 10:49N 46°07' W 122°58'0 0.0
2018-Feb-19 10:30N 46°07' W 122°58'0 0.0
2018-Feb-19 10:00N 46°07' W 122°58'3 4.3
2018-Feb-19 09:19N 46°05' W 122°54'1 4.7
2018-Feb-19 09:01N 46°04' W 122°53'2 4.2
2018-Feb-19 08:30N 46°02' W 122°53'0 0.1
2018-Feb-19 08:00N 46°02' W 122°53'0 0.5
2018-Feb-19 07:30N 46°02' W 122°52'2 3.5
2018-Feb-19 06:57N 46°04' W 122°53'3 5.3
2018-Feb-19 06:26N 46°05' W 122°56'0 0.0
2018-Feb-19 05:56N 46°05' W 122°56'0 0.0
2018-Feb-19 05:17N 46°05' W 122°56'0 0.0
2018-Feb-19 04:59N 46°05' W 122°56'0 0.0
2018-Feb-19 04:29N 46°05' W 122°56'0 0.0
2018-Feb-19 03:59N 46°05' W 122°56'0 0.0
2018-Feb-19 03:26N 46°05' W 122°56'0 0.0
2018-Feb-19 02:59N 46°05' W 122°56'0 0.0
2018-Feb-19 02:29N 46°05' W 122°56'0 0.0
2018-Feb-19 01:53N 46°05' W 122°56'0 0.0
2018-Feb-19 01:26N 46°05' W 122°56'0 0.0
2018-Feb-19 00:59N 46°05' W 122°56'0 0.0
2018-Feb-19 00:29N 46°05' W 122°56'0 0.0
2018-Feb-18 23:59N 46°05' W 122°56'0 0.0
2018-Feb-18 23:26N 46°05' W 122°56'0 0.0
2018-Feb-18 22:53N 46°05' W 122°56'0 0.0
2018-Feb-18 22:29N 46°05' W 122°56'0 0.1
2018-Feb-18 22:00N 46°05' W 122°56'1 1.1
2018-Feb-18 21:30N 46°06' W 122°56'0 0.2
2018-Feb-18 21:00N 46°06' W 122°56'0 0.3
2018-Feb-18 20:30N 46°06' W 122°56'0 0.0
2018-Feb-18 20:00N 46°06' W 122°56'0 0.0
2018-Feb-18 19:30N 46°06' W 122°56'0 0.0
2018-Feb-18 19:00N 46°06' W 122°56'0 0.0
2018-Feb-18 18:31N 46°06' W 122°56'0 0.0
2018-Feb-18 18:00N 46°06' W 122°56'0 0.0
2018-Feb-18 17:30N 46°06' W 122°56'0 0.0
2018-Feb-18 17:01N 46°06' W 122°56'0 0.3
2018-Feb-18 16:31N 46°06' W 122°56'1 1.0
2018-Feb-18 16:01N 46°05' W 122°56'0 0.0
2018-Feb-18 15:30N 46°05' W 122°56'0 0.0
2018-Feb-18 15:00N 46°05' W 122°56'0 0.0
2018-Feb-18 14:31N 46°05' W 122°56'0 0.0
2018-Feb-18 14:00N 46°05' W 122°56'0 0.0
2018-Feb-18 13:30N 46°05' W 122°56'0 0.0
2018-Feb-18 13:00N 46°05' W 122°56'0 0.0
2018-Feb-18 12:30N 46°05' W 122°56'0 0.0
2018-Feb-18 12:01N 46°05' W 122°56'0 0.0
2018-Feb-18 11:30N 46°05' W 122°56'0 0.0
2018-Feb-18 11:00N 46°05' W 122°56'0 0.0
2018-Feb-18 10:31N 46°05' W 122°56'0 0.0
2018-Feb-18 09:48N 46°05' W 122°56'0 0.0
2018-Feb-18 09:31N 46°05' W 122°56'0 0.0
2018-Feb-18 09:00N 46°05' W 122°56'0 0.0
2018-Feb-18 08:30N 46°05' W 122°56'0 0.0
2018-Feb-18 08:00N 46°05' W 122°56'0 0.0
2018-Feb-18 07:30N 46°05' W 122°56'0 0.0
2018-Feb-18 07:01N 46°05' W 122°56'0 0.0
2018-Feb-18 06:30N 46°05' W 122°56'0 0.0
2018-Feb-18 06:00N 46°05' W 122°56'0 0.0
2018-Feb-18 05:31N 46°05' W 122°56'0 0.0
2018-Feb-18 05:00N 46°05' W 122°56'0 0.0
2018-Feb-18 04:30N 46°05' W 122°56'0 0.0
2018-Feb-18 04:00N 46°05' W 122°56'0 0.0
2018-Feb-18 03:30N 46°05' W 122°56'0 0.0
2018-Feb-18 03:01N 46°05' W 122°56'0 0.0
2018-Feb-18 02:30N 46°05' W 122°56'0 0.0
2018-Feb-18 02:01N 46°05' W 122°56'0 0.0
2018-Feb-18 01:30N 46°05' W 122°56'0 0.0
2018-Feb-18 01:00N 46°05' W 122°56'0 0.0
2018-Feb-18 00:11N 46°05' W 122°56'0 0.0
2018-Feb-17 23:48N 46°05' W 122°56'0 0.0
2018-Feb-17 23:31N 46°05' W 122°56'0 0.0
2018-Feb-17 23:00N 46°05' W 122°56'4 7.3
2018-Feb-17 22:30N 46°02' W 122°53'2 4.4
2018-Feb-17 22:00N 46°01' W 122°51'0 0.4
2018-Feb-17 21:30N 46°00' W 122°51'2 3.2
2018-Feb-17 21:00N 45°59' W 122°50'0 0.1
2018-Feb-17 20:30N 45°59' W 122°50'3 6.1
2018-Feb-17 20:01N 46°02' W 122°52'0 0.0
2018-Feb-17 19:30N 46°02' W 122°52'3 4.7
2018-Feb-17 18:58N 46°04' W 122°53'2 4.8
2018-Feb-17 18:30N 46°05' W 122°56'1 2.0
2018-Feb-17 18:00N 46°06' W 122°57'0 0.2
2018-Feb-17 17:30N 46°06' W 122°57'1 2.1
2018-Feb-17 17:00N 46°05' W 122°56'0 0.0
2018-Feb-17 16:30N 46°05' W 122°56'0 0.0
2018-Feb-17 16:00N 46°05' W 122°56'0 0.0
2018-Feb-17 15:30N 46°05' W 122°56'0 0.0
2018-Feb-17 15:00N 46°05' W 122°56'0 0.0
2018-Feb-17 14:30N 46°05' W 122°56'0 0.0
2018-Feb-17 14:00N 46°05' W 122°56'0 0.0
2018-Feb-17 13:30N 46°05' W 122°56'0 0.3
2018-Feb-17 12:49N 46°06' W 122°56'1 1.3
2018-Feb-17 12:05N 46°06' W 122°57'0 1.5
2018-Feb-17 11:56N 46°06' W 122°58'1 0.8
2018-Feb-17 10:15N 46°05' W 122°56'0 0.0
2018-Feb-17 09:54N 46°05' W 122°56'0 0.0
2018-Feb-17 09:24N 46°05' W 122°56'0 0.0
2018-Feb-17 09:00N 46°05' W 122°56'0 0.0
2018-Feb-17 08:27N 46°05' W 122°56'0 0.0
2018-Feb-17 08:00N 46°05' W 122°56'0 0.0
2018-Feb-17 07:30N 46°05' W 122°56'0 0.0
2018-Feb-17 07:00N 46°05' W 122°56'0 0.0
2018-Feb-17 06:31N 46°05' W 122°56'4 8.2
2018-Feb-17 06:01N 46°02' W 122°53'0 0.8
2018-Feb-17 05:31N 46°02' W 122°53'0 0.7
2018-Feb-17 05:00N 46°02' W 122°52'0 0.0
2018-Feb-17 04:25N 46°02' W 122°52'0 0.0
2018-Feb-17 03:32N 46°02' W 122°52'0 0.0
2018-Feb-17 03:07N 46°02' W 122°52'0 0.0
2018-Feb-17 02:58N 46°02' W 122°52'0 0.0
2018-Feb-17 02:28N 46°02' W 122°52'0 0.0
2018-Feb-17 01:58N 46°02' W 122°52'0 0.0
2018-Feb-17 01:28N 46°02' W 122°52'0 0.0
2018-Feb-17 01:01N 46°02' W 122°52'3 5.0
2018-Feb-17 00:30N 45°59' W 122°50'1 1.1
2018-Feb-17 00:00N 45°59' W 122°50'0 0.8
2018-Feb-16 23:29N 45°59' W 122°50'1 2.8
2018-Feb-16 23:00N 46°00' W 122°51'3 5.2
2018-Feb-16 22:30N 45°58' W 122°50'713.4
2018-Feb-16 22:00N 45°52' W 122°47'713.2
2018-Feb-16 21:30N 45°45' W 122°46'7 8.2
2018-Feb-16 20:42N 45°39' W 122°45'0 0.0
2018-Feb-16 20:12N 45°39' W 122°45'0 0.0
2018-Feb-16 19:57N 45°39' W 122°45'0 0.0
2018-Feb-16 19:21N 45°39' W 122°45'0 0.0
2018-Feb-16 18:54N 45°39' W 122°45'0 0.0
2018-Feb-16 18:21N 45°39' W 122°45'0 0.0
2018-Feb-16 17:57N 45°39' W 122°45'0 0.0
2018-Feb-16 17:30N 45°39' W 122°45'0 0.0
2018-Feb-16 17:00N 45°39' W 122°45'0 0.0
2018-Feb-16 16:09N 45°39' W 122°45'0 0.0
2018-Feb-16 15:51N 45°39' W 122°45'0 0.0
2018-Feb-16 15:30N 45°39' W 122°45'3 5.2
2018-Feb-16 15:00N 45°38' W 122°42'0 0.7
2018-Feb-16 14:30N 45°38' W 122°42'1 1.7
2018-Feb-16 14:00N 45°38' W 122°43'0 0.8
2018-Feb-16 13:30N 45°38' W 122°43'0 0.3
2018-Feb-16 13:01N 45°38' W 122°43'1 2.3
2018-Feb-16 12:30N 45°39' W 122°44'0 0.9
2018-Feb-16 12:00N 45°39' W 122°45'1 2.0
2018-Feb-16 11:30N 45°39' W 122°46'3 6.3
2018-Feb-16 11:00N 45°36' W 122°47'0 0.5
2018-Feb-16 10:30N 45°36' W 122°47'0 0.3
2018-Feb-16 10:00N 45°36' W 122°47'0 0.0
2018-Feb-16 09:03N 45°36' W 122°47'0 0.0
2018-Feb-16 09:00N 45°36' W 122°47'0 0.0
2018-Feb-16 08:30N 45°36' W 122°47'0 0.1
2018-Feb-16 08:00N 45°36' W 122°47'3 5.8
2018-Feb-16 07:29N 45°34' W 122°44'0 0.0
2018-Feb-16 06:55N 45°34' W 122°44'0 0.0
2018-Feb-16 06:28N 45°34' W 122°44'0 0.0
2018-Feb-16 05:46N 45°34' W 122°44'0 0.0
2018-Feb-16 05:22N 45°34' W 122°44'0 0.0
2018-Feb-16 04:55N 45°34' W 122°44'0 0.0
2018-Feb-16 04:28N 45°34' W 122°44'0 0.0
2018-Feb-16 03:55N 45°34' W 122°44'0 0.0
2018-Feb-16 03:28N 45°34' W 122°44'0 0.0
2018-Feb-16 02:55N 45°34' W 122°44'0 0.0
2018-Feb-16 02:28N 45°34' W 122°44'0 0.0
2018-Feb-16 01:58N 45°34' W 122°44'0 0.0
2018-Feb-16 01:28N 45°34' W 122°44'0 0.0
2018-Feb-16 00:58N 45°34' W 122°44'0 0.0
2018-Feb-16 00:22N 45°34' W 122°44'0 0.0
2018-Feb-15 23:58N 45°34' W 122°44'0 0.0
2018-Feb-15 23:28N 45°34' W 122°44'0 0.0
2018-Feb-15 22:58N 45°34' W 122°44'0 0.0
2018-Feb-15 22:28N 45°34' W 122°44'0 0.0
2018-Feb-15 21:58N 45°34' W 122°44'0 0.0
2018-Feb-15 21:25N 45°34' W 122°44'0 0.0
2018-Feb-15 20:58N 45°34' W 122°44'0 0.0
2018-Feb-15 20:28N 45°34' W 122°44'0 0.0
2018-Feb-15 19:58N 45°34' W 122°44'0 0.0
2018-Feb-15 19:28N 45°34' W 122°44'0 0.0
2018-Feb-15 18:58N 45°34' W 122°44'0 0.0
2018-Feb-15 18:16N 45°34' W 122°44'0 0.0
2018-Feb-15 17:46N 45°34' W 122°44'0 0.0
2018-Feb-15 17:16N 45°34' W 122°44'0 0.0
2018-Feb-15 16:58N 45°34' W 122°44'0 0.0
2018-Feb-15 16:25N 45°34' W 122°44'0 0.0
2018-Feb-15 15:58N 45°34' W 122°44'0 0.0
2018-Feb-15 15:28N 45°34' W 122°44'0 0.0
2018-Feb-15 14:58N 45°34' W 122°44'0 0.0
2018-Feb-15 14:28N 45°34' W 122°44'0 0.0
2018-Feb-15 13:58N 45°34' W 122°44'0 0.0
2018-Feb-15 13:28N 45°34' W 122°44'0 0.0
2018-Feb-15 12:55N 45°34' W 122°44'0 0.0
2018-Feb-15 12:28N 45°34' W 122°44'0 0.0
2018-Feb-15 10:52N 45°34' W 122°44'0 0.0
2018-Feb-15 10:09N 45°34' W 122°44'0 0.0
2018-Feb-15 09:58N 45°34' W 122°44'0 0.0
2018-Feb-15 09:28N 45°34' W 122°44'0 0.0
2018-Feb-15 08:49N 45°34' W 122°44'0 0.1
2018-Feb-15 08:25N 45°34' W 122°44'0 0.0
2018-Feb-15 07:58N 45°34' W 122°44'0 0.0
2018-Feb-15 07:28N 45°34' W 122°44'0 0.0
2018-Feb-15 06:58N 45°34' W 122°44'0 0.0
2018-Feb-15 06:25N 45°34' W 122°44'0 0.0
2018-Feb-15 05:55N 45°34' W 122°44'0 0.0
2018-Feb-15 05:25N 45°34' W 122°44'0 0.0
2018-Feb-15 04:58N 45°34' W 122°44'0 0.0
2018-Feb-15 04:22N 45°34' W 122°44'0 0.0
2018-Feb-15 03:58N 45°34' W 122°44'0 0.0
2018-Feb-15 03:25N 45°34' W 122°44'0 0.0
2018-Feb-15 02:55N 45°34' W 122°44'0 0.0
2018-Feb-15 02:28N 45°34' W 122°44'0 0.0
2018-Feb-15 01:58N 45°34' W 122°44'0 0.0
2018-Feb-15 01:28N 45°34' W 122°44'0 0.0
2018-Feb-15 00:55N 45°34' W 122°44'0 0.0
2018-Feb-15 00:28N 45°34' W 122°44'0 0.0
2018-Feb-14 23:58N 45°34' W 122°44'0 0.0
2018-Feb-14 23:28N 45°34' W 122°44'0 0.0
2018-Feb-14 22:58N 45°34' W 122°44'0 0.0
2018-Feb-14 22:28N 45°34' W 122°44'0 0.0
2018-Feb-14 21:58N 45°34' W 122°44'0 0.0
2018-Feb-14 21:28N 45°34' W 122°44'0 0.0
2018-Feb-14 20:58N 45°34' W 122°44'0 0.0
2018-Feb-14 20:25N 45°34' W 122°44'0 0.0
2018-Feb-14 19:58N 45°34' W 122°44'0 0.0
2018-Feb-14 19:25N 45°34' W 122°44'0 0.0
2018-Feb-14 18:55N 45°34' W 122°44'0 0.0
2018-Feb-14 18:28N 45°34' W 122°44'0 0.0
2018-Feb-14 17:58N 45°34' W 122°44'0 0.0
2018-Feb-14 17:25N 45°34' W 122°44'0 0.0
2018-Feb-14 16:55N 45°34' W 122°44'0 0.0
2018-Feb-14 16:28N 45°34' W 122°44'0 0.0
2018-Feb-14 15:49N 45°34' W 122°44'0 0.0
2018-Feb-14 15:28N 45°34' W 122°44'0 0.0
2018-Feb-14 14:55N 45°34' W 122°44'0 0.0
2018-Feb-14 14:28N 45°34' W 122°44'0 0.0
2018-Feb-14 13:55N 45°34' W 122°44'0 0.0
2018-Feb-14 13:28N 45°34' W 122°44'0 0.0
2018-Feb-14 13:00N 45°34' W 122°44'0 0.0
2018-Feb-14 12:30N 45°34' W 122°44'0 0.0
2018-Feb-14 12:00N 45°34' W 122°44'0 0.0
2018-Feb-14 11:27N 45°34' W 122°44'0 0.0
2018-Feb-14 11:00N 45°34' W 122°44'2 3.3
2018-Feb-14 10:31N 45°35' W 122°45'4 7.5
2018-Feb-14 10:01N 45°38' W 122°47'1 1.8
2018-Feb-14 09:26N 45°39' W 122°45'0 0.0
2018-Feb-14 08:50N 45°39' W 122°45'0 0.0
2018-Feb-14 08:26N 45°39' W 122°45'0 0.0
2018-Feb-14 07:59N 45°39' W 122°45'0 0.0
2018-Feb-14 07:29N 45°39' W 122°45'0 0.0
2018-Feb-14 06:59N 45°39' W 122°45'0 0.0
2018-Feb-14 06:29N 45°39' W 122°45'0 0.0
2018-Feb-14 05:59N 45°39' W 122°45'0 0.0
2018-Feb-14 05:29N 45°39' W 122°45'2 3.4
2018-Feb-14 05:00N 45°38' W 122°43'0 0.3
2018-Feb-14 04:30N 45°38' W 122°43'0 0.2
2018-Feb-14 04:00N 45°38' W 122°43'2 3.2
2018-Feb-14 03:30N 45°39' W 122°45'0 0.0
2018-Feb-14 03:01N 45°39' W 122°45'0 0.0
2018-Feb-14 02:30N 45°39' W 122°45'0 0.0
2018-Feb-14 02:00N 45°39' W 122°45'0 0.0
2018-Feb-14 01:30N 45°39' W 122°45'0 0.0
2018-Feb-14 01:01N 45°39' W 122°45'0 0.0
2018-Feb-14 00:31N 45°39' W 122°45'0 0.0
2018-Feb-14 00:00N 45°39' W 122°45'2 3.0
2018-Feb-13 23:30N 45°40' W 122°46'1 1.1
2018-Feb-13 23:00N 45°40' W 122°47'2 3.7
2018-Feb-13 22:27N 45°39' W 122°45'0 0.0
2018-Feb-13 20:36N 45°39' W 122°45'0 0.0
2018-Feb-13 20:30N 45°39' W 122°45'0 0.0
2018-Feb-13 20:00N 45°39' W 122°45'0 0.0
2018-Feb-13 19:30N 45°39' W 122°45'0 0.0
2018-Feb-13 18:54N 45°39' W 122°45'0 0.0
2018-Feb-13 18:18N 45°39' W 122°45'0 0.0
2018-Feb-13 17:45N 45°39' W 122°45'0 0.0
2018-Feb-13 17:18N 45°39' W 122°45'0 0.0
2018-Feb-13 16:57N 45°39' W 122°45'0 0.0
2018-Feb-13 16:27N 45°39' W 122°45'0 0.0
2018-Feb-13 15:39N 45°39' W 122°45'0 0.0
2018-Feb-13 15:15N 45°39' W 122°45'0 0.0
2018-Feb-13 14:54N 45°39' W 122°45'0 0.0
2018-Feb-13 14:30N 45°39' W 122°45'0 0.0
2018-Feb-13 14:00N 45°39' W 122°45'0 0.0
2018-Feb-13 13:30N 45°39' W 122°45'0 0.0
2018-Feb-13 12:45N 45°39' W 122°45'0 0.0
2018-Feb-13 12:30N 45°39' W 122°45'0 0.0
2018-Feb-13 11:54N 45°39' W 122°45'0 0.0
2018-Feb-13 11:30N 45°39' W 122°45'0 0.0
2018-Feb-13 11:00N 45°39' W 122°45'0 0.0
2018-Feb-13 10:27N 45°39' W 122°45'0 0.0
2018-Feb-13 10:00N 45°39' W 122°45'0 0.0
2018-Feb-13 09:30N 45°39' W 122°45'0 0.0
2018-Feb-13 08:54N 45°39' W 122°45'0 0.0
2018-Feb-13 08:30N 45°39' W 122°45'0 0.0
2018-Feb-13 08:00N 45°39' W 122°45'0 0.0
2018-Feb-13 07:30N 45°39' W 122°45'0 0.0
2018-Feb-13 06:57N 45°39' W 122°45'2 3.5
2018-Feb-13 06:30N 45°38' W 122°43'0 0.0
2018-Feb-13 05:49N 45°38' W 122°43'0 0.2
2018-Feb-13 05:27N 45°38' W 122°43'1 1.4
2018-Feb-13 05:00N 45°39' W 122°44'1 1.7
2018-Feb-13 04:30N 45°39' W 122°45'0 0.0
2018-Feb-13 04:01N 45°39' W 122°45'0 0.0
2018-Feb-13 03:30N 45°39' W 122°45'0 0.0
2018-Feb-13 03:00N 45°39' W 122°45'3 5.8
2018-Feb-13 02:29N 45°41' W 122°46'5 9.3
2018-Feb-13 02:00N 45°46' W 122°46'5 9.7
2018-Feb-13 01:30N 45°51' W 122°47'5 9.2
2018-Feb-13 01:01N 45°55' W 122°48'810.0
2018-Feb-13 00:13N 46°03' W 122°53'2 9.9
2018-Feb-13 00:00N 46°05' W 122°54'2 3.5
2018-Feb-12 23:30N 46°06' W 122°56'0 1.0
2018-Feb-12 23:00N 46°06' W 122°56'1 2.2
2018-Feb-12 22:30N 46°06' W 122°58'0 0.3
2018-Feb-12 22:00N 46°06' W 122°58'2 3.3
2018-Feb-12 21:30N 46°05' W 122°56'0 0.0
2018-Feb-12 21:00N 46°05' W 122°56'0 0.0
2018-Feb-12 20:18N 46°05' W 122°56'0 0.0
2018-Feb-12 19:54N 46°05' W 122°56'0 0.0
2018-Feb-12 19:18N 46°05' W 122°56'0 0.0
2018-Feb-12 19:00N 46°05' W 122°56'0 0.0
2018-Feb-12 18:28N 46°05' W 122°56'0 0.0
2018-Feb-12 17:58N 46°05' W 122°56'0 0.0
2018-Feb-12 17:16N 46°05' W 122°56'0 0.0
2018-Feb-12 16:58N 46°05' W 122°56'0 0.0
2018-Feb-12 16:19N 46°05' W 122°56'0 0.0
2018-Feb-12 15:58N 46°05' W 122°56'0 0.0
2018-Feb-12 15:07N 46°05' W 122°56'0 0.0
2018-Feb-12 14:58N 46°05' W 122°56'0 0.0
2018-Feb-12 14:28N 46°05' W 122°56'0 0.0
2018-Feb-12 13:58N 46°05' W 122°56'1 2.2
2018-Feb-12 13:30N 46°06' W 122°57'5 8.3
2018-Feb-12 12:57N 46°09' W 123°02'4 8.6
2018-Feb-12 12:30N 46°11' W 123°07'4 8.3
2018-Feb-12 12:01N 46°10' W 123°13'4 8.4
2018-Feb-12 11:30N 46°09' W 123°18'4 8.6
2018-Feb-12 11:01N 46°10' W 123°24'4 8.5
2018-Feb-12 10:30N 46°14' W 123°26'4 8.2
2018-Feb-12 10:00N 46°16' W 123°31'5 9.3
2018-Feb-12 09:31N 46°16' W 123°37'5 9.6
2018-Feb-12 09:01N 46°14' W 123°44'510.2
2018-Feb-12 08:31N 46°12' W 123°50'1 2.0
2018-Feb-12 08:00N 46°11' W 123°52'0 0.2
2018-Feb-12 07:29N 46°11' W 123°52'0 0.0
2018-Feb-12 06:59N 46°11' W 123°52'0 0.0
2018-Feb-12 06:29N 46°11' W 123°52'2 3.1
2018-Feb-12 05:47N 46°12' W 123°49'2 7.7
2018-Feb-12 05:31N 46°13' W 123°46'4 8.1
2018-Feb-12 05:00N 46°15' W 123°41'4 8.2
2018-Feb-12 04:30N 46°15' W 123°35'5 9.2
2018-Feb-12 04:01N 46°16' W 123°28'5 9.9
2018-Feb-12 03:31N 46°12' W 123°26'5 9.5
2018-Feb-12 03:00N 46°09' W 123°20'510.7
2018-Feb-12 02:30N 46°10' W 123°13'510.2
2018-Feb-12 02:00N 46°10' W 123°06'612.3
2018-Feb-12 01:30N 46°07' W 122°58'2 3.6
2018-Feb-12 00:55N 46°05' W 122°56'0 0.0
2018-Feb-12 00:28N 46°05' W 122°56'0 0.0
2018-Feb-11 23:58N 46°05' W 122°56'0 0.0
2018-Feb-11 23:28N 46°05' W 122°56'0 0.0
2018-Feb-11 22:58N 46°05' W 122°56'0 0.0
2018-Feb-11 22:25N 46°05' W 122°56'0 0.0
2018-Feb-11 21:58N 46°05' W 122°56'0 0.0
2018-Feb-11 21:28N 46°05' W 122°56'0 0.0
2018-Feb-11 20:55N 46°05' W 122°56'0 0.0
2018-Feb-11 19:55N 46°05' W 122°56'0 0.0
2018-Feb-11 19:13N 46°05' W 122°56'0 0.0
2018-Feb-11 18:55N 46°05' W 122°56'0 0.0
2018-Feb-11 18:28N 46°05' W 122°56'0 0.0
2018-Feb-11 17:49N 46°05' W 122°56'0 0.0
2018-Feb-11 17:28N 46°05' W 122°56'0 0.0
2018-Feb-11 16:52N 46°05' W 122°56'0 0.0
2018-Feb-11 16:28N 46°05' W 122°56'0 0.0
2018-Feb-11 15:55N 46°05' W 122°56'0 0.0
2018-Feb-11 15:28N 46°05' W 122°56'0 0.0
2018-Feb-11 14:58N 46°05' W 122°56'0 0.0
2018-Feb-11 14:28N 46°05' W 122°56'0 0.0
2018-Feb-11 13:46N 46°05' W 122°56'0 0.0
2018-Feb-11 13:25N 46°05' W 122°56'0 0.0
2018-Feb-11 12:58N 46°05' W 122°56'0 0.0
2018-Feb-11 12:28N 46°05' W 122°56'0 0.0
2018-Feb-11 11:52N 46°05' W 122°56'0 0.0
2018-Feb-11 11:28N 46°05' W 122°56'0 0.0
2018-Feb-11 10:58N 46°05' W 122°56'0 0.0
2018-Feb-11 10:28N 46°05' W 122°56'0 0.0
2018-Feb-11 09:55N 46°05' W 122°56'0 0.0
2018-Feb-11 09:28N 46°05' W 122°56'0 0.0
2018-Feb-11 08:37N 46°05' W 122°56'0 0.0
2018-Feb-11 08:22N 46°05' W 122°56'0 0.0
2018-Feb-11 07:58N 46°05' W 122°56'0 0.0
2018-Feb-11 06:49N 46°05' W 122°56'0 0.0
2018-Feb-11 06:22N 46°05' W 122°56'1 1.5
2018-Feb-11 05:51N 46°06' W 122°57'0 0.3
2018-Feb-11 05:30N 46°06' W 122°57'0 0.1
2018-Feb-11 05:01N 46°06' W 122°57'0 0.4
2018-Feb-11 04:30N 46°06' W 122°56'0 0.5
2018-Feb-11 04:01N 46°06' W 122°57'0 0.7
2018-Feb-11 03:31N 46°06' W 122°56'0 0.0
2018-Feb-11 03:00N 46°06' W 122°56'3 3.7
2018-Feb-11 02:18N 46°08' W 122°59'0 0.0
2018-Feb-11 02:01N 46°08' W 122°59'2 3.8
2018-Feb-11 01:29N 46°06' W 122°57'0 0.3
2018-Feb-11 01:00N 46°06' W 122°57'2 3.3
2018-Feb-11 00:25N 46°08' W 122°59'3 7.2
2018-Feb-11 00:00N 46°06' W 122°56'0 0.2
2018-Feb-10 23:30N 46°05' W 122°56'0 0.0
2018-Feb-10 22:57N 46°05' W 122°56'0 0.0
2018-Feb-10 22:15N 46°05' W 122°56'0 0.0
2018-Feb-10 22:00N 46°05' W 122°56'0 0.0
2018-Feb-10 21:30N 46°05' W 122°56'0 0.0
2018-Feb-10 20:57N 46°05' W 122°56'0 0.0
2018-Feb-10 20:27N 46°05' W 122°56'0 0.0
2018-Feb-10 20:00N 46°05' W 122°56'0 0.0
2018-Feb-10 19:30N 46°05' W 122°56'0 0.0
2018-Feb-10 18:57N 46°05' W 122°56'0 0.0
2018-Feb-10 18:30N 46°05' W 122°56'0 0.0
2018-Feb-10 18:00N 46°05' W 122°56'0 0.0
2018-Feb-10 17:30N 46°05' W 122°56'0 0.0
2018-Feb-10 16:54N 46°05' W 122°56'0 0.0
2018-Feb-10 16:30N 46°05' W 122°56'0 0.0
2018-Feb-10 16:00N 46°05' W 122°56'0 0.0
2018-Feb-10 15:30N 46°05' W 122°56'1 1.2
2018-Feb-10 15:01N 46°05' W 122°55'2 3.7
2018-Feb-10 14:30N 46°04' W 122°53'0 0.0
2018-Feb-10 14:00N 46°04' W 122°53'0 0.0
2018-Feb-10 13:30N 46°04' W 122°53'0 0.1
2018-Feb-10 13:01N 46°04' W 122°53'0 0.6
2018-Feb-10 12:30N 46°04' W 122°53'2 4.4
2018-Feb-10 12:00N 46°05' W 122°56'0 0.0
2018-Feb-10 11:28N 46°05' W 122°56'0 0.0
2018-Feb-10 10:58N 46°05' W 122°56'0 0.0
2018-Feb-10 10:10N 46°05' W 122°56'0 0.0
2018-Feb-10 09:58N 46°05' W 122°56'0 0.0
2018-Feb-10 09:28N 46°05' W 122°56'0 0.0
2018-Feb-10 08:58N 46°05' W 122°56'0 0.0
2018-Feb-10 08:28N 46°05' W 122°56'0 0.0
2018-Feb-10 07:55N 46°05' W 122°56'0 0.0
2018-Feb-10 07:28N 46°05' W 122°56'0 0.0
2018-Feb-10 06:46N 46°05' W 122°56'0 0.0
2018-Feb-10 06:13N 46°05' W 122°56'0 0.0
2018-Feb-10 05:58N 46°05' W 122°56'0 0.0
2018-Feb-10 05:28N 46°05' W 122°56'0 0.0
2018-Feb-10 04:58N 46°05' W 122°56'0 0.0
2018-Feb-10 04:28N 46°05' W 122°56'0 0.0
2018-Feb-10 03:46N 46°05' W 122°56'0 0.0
2018-Feb-10 03:25N 46°05' W 122°56'0 0.0
2018-Feb-10 02:55N 46°05' W 122°56'0 0.0
2018-Feb-10 02:25N 46°05' W 122°56'0 0.0
2018-Feb-10 01:52N 46°05' W 122°56'0 0.0
2018-Feb-10 01:25N 46°05' W 122°56'0 0.0
2018-Feb-10 00:58N 46°05' W 122°56'0 0.0
2018-Feb-10 00:19N 46°05' W 122°56'0 0.0
2018-Feb-09 23:58N 46°05' W 122°56'0 0.0
2018-Feb-09 23:28N 46°05' W 122°56'0 0.0
2018-Feb-09 22:43N 46°05' W 122°56'  

Dump ship's entire track history